sensor_id;sensor_type;location;lat;lon;timestamp;temperature;humidity
50544;DHT22;41176;44.032;20.900;2024-03-22T00:01:49;8.90;73.90
50544;DHT22;41176;44.032;20.900;2024-03-22T00:04:16;8.90;74.60
50544;DHT22;41176;44.032;20.900;2024-03-22T00:06:42;8.90;74.90
50544;DHT22;41176;44.032;20.900;2024-03-22T00:09:09;8.80;74.80
50544;DHT22;41176;44.032;20.900;2024-03-22T00:11:35;8.80;75.60
50544;DHT22;41176;44.032;20.900;2024-03-22T00:14:02;8.80;75.50
50544;DHT22;41176;44.032;20.900;2024-03-22T00:16:28;8.70;75.90
50544;DHT22;41176;44.032;20.900;2024-03-22T00:18:53;8.60;75.80
50544;DHT22;41176;44.032;20.900;2024-03-22T00:21:21;8.50;76.10
50544;DHT22;41176;44.032;20.900;2024-03-22T00:23:46;8.50;76.30
50544;DHT22;41176;44.032;20.900;2024-03-22T00:26:12;8.40;76.90
50544;DHT22;41176;44.032;20.900;2024-03-22T00:28:38;8.30;77.50
50544;DHT22;41176;44.032;20.900;2024-03-22T00:31:04;8.20;78.10
50544;DHT22;41176;44.032;20.900;2024-03-22T00:33:29;8.30;77.90
50544;DHT22;41176;44.032;20.900;2024-03-22T00:35:55;8.30;78.10
50544;DHT22;41176;44.032;20.900;2024-03-22T00:38:21;8.10;79.00
50544;DHT22;41176;44.032;20.900;2024-03-22T00:40:47;8.20;79.00
50544;DHT22;41176;44.032;20.900;2024-03-22T00:43:12;8.20;78.70
50544;DHT22;41176;44.032;20.900;2024-03-22T00:45:38;8.30;78.40
50544;DHT22;41176;44.032;20.900;2024-03-22T00:48:04;8.40;78.00
50544;DHT22;41176;44.032;20.900;2024-03-22T00:50:30;8.50;77.90
50544;DHT22;41176;44.032;20.900;2024-03-22T00:52:56;8.50;77.80
50544;DHT22;41176;44.032;20.900;2024-03-22T00:55:22;8.60;77.30
50544;DHT22;41176;44.032;20.900;2024-03-22T00:57:48;8.60;77.40
50544;DHT22;41176;44.032;20.900;2024-03-22T01:00:15;8.80;76.80
50544;DHT22;41176;44.032;20.900;2024-03-22T01:02:42;8.90;76.20
50544;DHT22;41176;44.032;20.900;2024-03-22T01:05:08;9.00;75.90
50544;DHT22;41176;44.032;20.900;2024-03-22T01:07:33;9.00;75.60
50544;DHT22;41176;44.032;20.900;2024-03-22T01:09:59;9.10;76.20
50544;DHT22;41176;44.032;20.900;2024-03-22T01:12:25;9.10;75.80
50544;DHT22;41176;44.032;20.900;2024-03-22T01:14:51;9.20;75.50
50544;DHT22;41176;44.032;20.900;2024-03-22T01:17:17;9.20;75.40
50544;DHT22;41176;44.032;20.900;2024-03-22T01:19:42;9.20;75.30
50544;DHT22;41176;44.032;20.900;2024-03-22T01:22:08;9.30;76.20
50544;DHT22;41176;44.032;20.900;2024-03-22T01:24:34;9.30;77.00
50544;DHT22;41176;44.032;20.900;2024-03-22T01:27:00;9.40;77.50
50544;DHT22;41176;44.032;20.900;2024-03-22T01:29:25;9.40;77.40
50544;DHT22;41176;44.032;20.900;2024-03-22T01:31:53;9.40;76.60
50544;DHT22;41176;44.032;20.900;2024-03-22T01:34:18;9.30;76.70
50544;DHT22;41176;44.032;20.900;2024-03-22T01:36:44;9.30;77.80
50544;DHT22;41176;44.032;20.900;2024-03-22T01:39:11;9.20;77.60
50544;DHT22;41176;44.032;20.900;2024-03-22T01:41:36;9.10;77.30
50544;DHT22;41176;44.032;20.900;2024-03-22T01:44:02;9.00;77.30
50544;DHT22;41176;44.032;20.900;2024-03-22T01:46:28;8.90;77.80
50544;DHT22;41176;44.032;20.900;2024-03-22T01:48:54;8.90;77.80
50544;DHT22;41176;44.032;20.900;2024-03-22T01:51:20;8.80;78.10
50544;DHT22;41176;44.032;20.900;2024-03-22T01:53:45;8.90;78.40
50544;DHT22;41176;44.032;20.900;2024-03-22T01:56:11;8.80;78.50
50544;DHT22;41176;44.032;20.900;2024-03-22T01:58:37;8.90;78.40
50544;DHT22;41176;44.032;20.900;2024-03-22T02:01:03;8.90;78.50
50544;DHT22;41176;44.032;20.900;2024-03-22T02:03:29;9.00;77.90
50544;DHT22;41176;44.032;20.900;2024-03-22T02:05:55;9.00;77.60
50544;DHT22;41176;44.032;20.900;2024-03-22T02:08:21;8.90;78.40
50544;DHT22;41176;44.032;20.900;2024-03-22T02:10:46;8.90;78.40
50544;DHT22;41176;44.032;20.900;2024-03-22T02:13:12;9.00;78.30
50544;DHT22;41176;44.032;20.900;2024-03-22T02:15:38;9.10;78.30
50544;DHT22;41176;44.032;20.900;2024-03-22T02:18:04;9.20;79.00
50544;DHT22;41176;44.032;20.900;2024-03-22T02:20:30;9.20;79.20
50544;DHT22;41176;44.032;20.900;2024-03-22T02:22:55;9.20;79.90
50544;DHT22;41176;44.032;20.900;2024-03-22T02:25:21;9.20;79.80
50544;DHT22;41176;44.032;20.900;2024-03-22T02:27:47;9.20;79.30
50544;DHT22;41176;44.032;20.900;2024-03-22T02:30:16;9.10;79.70
50544;DHT22;41176;44.032;20.900;2024-03-22T02:32:42;9.10;80.70
50544;DHT22;41176;44.032;20.900;2024-03-22T02:35:08;9.10;80.90
50544;DHT22;41176;44.032;20.900;2024-03-22T02:37:34;9.00;79.90
50544;DHT22;41176;44.032;20.900;2024-03-22T02:40:00;9.00;80.20
50544;DHT22;41176;44.032;20.900;2024-03-22T02:42:25;8.90;80.90
50544;DHT22;41176;44.032;20.900;2024-03-22T02:44:52;8.80;81.80
50544;DHT22;41176;44.032;20.900;2024-03-22T02:47:17;8.80;81.70
50544;DHT22;41176;44.032;20.900;2024-03-22T02:49:43;8.70;82.10
50544;DHT22;41176;44.032;20.900;2024-03-22T02:52:09;8.70;82.20
50544;DHT22;41176;44.032;20.900;2024-03-22T02:54:34;8.70;82.20
50544;DHT22;41176;44.032;20.900;2024-03-22T02:57:00;8.70;82.40
50544;DHT22;41176;44.032;20.900;2024-03-22T02:59:27;8.60;82.30
50544;DHT22;41176;44.032;20.900;2024-03-22T03:01:53;8.60;82.80
50544;DHT22;41176;44.032;20.900;2024-03-22T03:04:19;8.60;83.00
50544;DHT22;41176;44.032;20.900;2024-03-22T03:06:45;8.50;83.20
50544;DHT22;41176;44.032;20.900;2024-03-22T03:09:11;8.40;83.10
50544;DHT22;41176;44.032;20.900;2024-03-22T03:11:41;8.40;83.90
50544;DHT22;41176;44.032;20.900;2024-03-22T03:14:07;8.40;83.90
50544;DHT22;41176;44.032;20.900;2024-03-22T03:16:33;8.40;83.10
50544;DHT22;41176;44.032;20.900;2024-03-22T03:18:59;8.40;83.00
50544;DHT22;41176;44.032;20.900;2024-03-22T03:21:24;8.30;83.10
50544;DHT22;41176;44.032;20.900;2024-03-22T03:23:50;8.20;84.00
50544;DHT22;41176;44.032;20.900;2024-03-22T03:26:16;8.10;84.30
50544;DHT22;41176;44.032;20.900;2024-03-22T03:28:42;8.10;84.80
50544;DHT22;41176;44.032;20.900;2024-03-22T03:31:07;8.00;85.20
50544;DHT22;41176;44.032;20.900;2024-03-22T03:33:33;8.00;85.40
50544;DHT22;41176;44.032;20.900;2024-03-22T03:35:59;8.10;85.20
50544;DHT22;41176;44.032;20.900;2024-03-22T03:38:24;8.10;85.20
50544;DHT22;41176;44.032;20.900;2024-03-22T03:40:50;8.10;85.90
50544;DHT22;41176;44.032;20.900;2024-03-22T03:43:16;8.00;86.20
50544;DHT22;41176;44.032;20.900;2024-03-22T03:45:42;8.00;86.80
50544;DHT22;41176;44.032;20.900;2024-03-22T03:48:07;8.00;86.60
50544;DHT22;41176;44.032;20.900;2024-03-22T03:50:33;8.10;86.40
50544;DHT22;41176;44.032;20.900;2024-03-22T03:52:59;8.10;86.40
50544;DHT22;41176;44.032;20.900;2024-03-22T03:55:26;8.10;86.80
50544;DHT22;41176;44.032;20.900;2024-03-22T03:57:52;8.00;87.00
50544;DHT22;41176;44.032;20.900;2024-03-22T04:00:19;8.00;87.80
50544;DHT22;41176;44.032;20.900;2024-03-22T04:02:45;8.00;87.50
50544;DHT22;41176;44.032;20.900;2024-03-22T04:05:11;8.10;88.00
50544;DHT22;41176;44.032;20.900;2024-03-22T04:07:37;8.10;88.00
50544;DHT22;41176;44.032;20.900;2024-03-22T04:10:05;8.10;88.30
50544;DHT22;41176;44.032;20.900;2024-03-22T04:12:31;8.20;88.60
50544;DHT22;41176;44.032;20.900;2024-03-22T04:14:57;8.10;89.10
50544;DHT22;41176;44.032;20.900;2024-03-22T04:17:22;8.10;90.00
50544;DHT22;41176;44.032;20.900;2024-03-22T04:19:49;7.90;90.70
50544;DHT22;41176;44.032;20.900;2024-03-22T04:22:15;7.80;91.30
50544;DHT22;41176;44.032;20.900;2024-03-22T04:24:41;7.80;91.90
50544;DHT22;41176;44.032;20.900;2024-03-22T04:27:07;7.70;92.20
50544;DHT22;41176;44.032;20.900;2024-03-22T04:29:33;7.80;92.40
50544;DHT22;41176;44.032;20.900;2024-03-22T04:31:59;7.80;92.30
50544;DHT22;41176;44.032;20.900;2024-03-22T04:34:24;7.90;92.40
50544;DHT22;41176;44.032;20.900;2024-03-22T04:36:51;7.90;92.20
50544;DHT22;41176;44.032;20.900;2024-03-22T04:39:20;7.90;91.90
50544;DHT22;41176;44.032;20.900;2024-03-22T04:41:45;8.00;91.90
50544;DHT22;41176;44.032;20.900;2024-03-22T04:44:11;8.00;91.70
50544;DHT22;41176;44.032;20.900;2024-03-22T04:46:37;8.10;91.20
50544;DHT22;41176;44.032;20.900;2024-03-22T04:49:02;8.20;90.80
50544;DHT22;41176;44.032;20.900;2024-03-22T04:51:28;8.30;90.40
50544;DHT22;41176;44.032;20.900;2024-03-22T04:53:54;8.40;90.00
50544;DHT22;41176;44.032;20.900;2024-03-22T04:56:20;8.50;89.30
50544;DHT22;41176;44.032;20.900;2024-03-22T04:58:45;8.60;89.00
50544;DHT22;41176;44.032;20.900;2024-03-22T05:01:11;8.70;88.50
50544;DHT22;41176;44.032;20.900;2024-03-22T05:03:38;8.70;88.10
50544;DHT22;41176;44.032;20.900;2024-03-22T05:06:04;8.80;88.60
50544;DHT22;41176;44.032;20.900;2024-03-22T05:08:32;8.80;89.50
50544;DHT22;41176;44.032;20.900;2024-03-22T05:10:57;8.80;90.00
50544;DHT22;41176;44.032;20.900;2024-03-22T05:13:23;8.70;90.10
50544;DHT22;41176;44.032;20.900;2024-03-22T05:15:49;8.70;90.50
50544;DHT22;41176;44.032;20.900;2024-03-22T05:18:15;8.50;90.00
50544;DHT22;41176;44.032;20.900;2024-03-22T05:20:41;8.50;90.60
50544;DHT22;41176;44.032;20.900;2024-03-22T05:23:06;8.50;90.70
50544;DHT22;41176;44.032;20.900;2024-03-22T05:25:32;8.60;90.90
50544;DHT22;41176;44.032;20.900;2024-03-22T05:27:58;8.60;90.90
50544;DHT22;41176;44.032;20.900;2024-03-22T05:30:23;8.60;90.60
50544;DHT22;41176;44.032;20.900;2024-03-22T05:32:49;8.70;90.50
50544;DHT22;41176;44.032;20.900;2024-03-22T05:35:16;8.80;90.70
50544;DHT22;41176;44.032;20.900;2024-03-22T05:37:41;8.90;90.50
50544;DHT22;41176;44.032;20.900;2024-03-22T05:40:08;9.00;90.90
50544;DHT22;41176;44.032;20.900;2024-03-22T05:42:34;9.00;90.60
50544;DHT22;41176;44.032;20.900;2024-03-22T05:45:00;9.10;89.90
50544;DHT22;41176;44.032;20.900;2024-03-22T05:47:26;9.20;90.00
50544;DHT22;41176;44.032;20.900;2024-03-22T05:49:52;9.30;89.30
50544;DHT22;41176;44.032;20.900;2024-03-22T05:52:18;9.30;89.40
50544;DHT22;41176;44.032;20.900;2024-03-22T05:54:44;9.40;90.40
50544;DHT22;41176;44.032;20.900;2024-03-22T05:57:10;9.30;91.00
50544;DHT22;41176;44.032;20.900;2024-03-22T05:59:36;9.40;91.00
50544;DHT22;41176;44.032;20.900;2024-03-22T06:02:02;9.50;90.90
50544;DHT22;41176;44.032;20.900;2024-03-22T06:04:28;9.50;89.50
50544;DHT22;41176;44.032;20.900;2024-03-22T06:06:54;9.60;89.60
50544;DHT22;41176;44.032;20.900;2024-03-22T06:09:19;9.70;88.00
50544;DHT22;41176;44.032;20.900;2024-03-22T06:12:00;9.70;88.20
50544;DHT22;41176;44.032;20.900;2024-03-22T06:14:28;9.70;87.20
50544;DHT22;41176;44.032;20.900;2024-03-22T06:16:53;9.70;87.20
50544;DHT22;41176;44.032;20.900;2024-03-22T06:19:19;9.80;87.10
50544;DHT22;41176;44.032;20.900;2024-03-22T06:21:45;9.90;86.70
50544;DHT22;41176;44.032;20.900;2024-03-22T06:24:10;10.00;86.40
50544;DHT22;41176;44.032;20.900;2024-03-22T06:26:36;10.20;87.40
50544;DHT22;41176;44.032;20.900;2024-03-22T06:29:02;10.20;86.20
50544;DHT22;41176;44.032;20.900;2024-03-22T06:31:28;10.30;85.60
50544;DHT22;41176;44.032;20.900;2024-03-22T06:33:54;10.40;85.40
50544;DHT22;41176;44.032;20.900;2024-03-22T06:36:21;10.50;85.40
50544;DHT22;41176;44.032;20.900;2024-03-22T06:38:47;10.60;85.70
50544;DHT22;41176;44.032;20.900;2024-03-22T06:41:13;10.60;85.80
50544;DHT22;41176;44.032;20.900;2024-03-22T06:43:39;10.70;85.10
50544;DHT22;41176;44.032;20.900;2024-03-22T06:46:06;10.70;84.30
50544;DHT22;41176;44.032;20.900;2024-03-22T06:48:32;10.80;84.20
50544;DHT22;41176;44.032;20.900;2024-03-22T06:50:57;10.90;83.10
50544;DHT22;41176;44.032;20.900;2024-03-22T06:53:23;11.00;82.60
50544;DHT22;41176;44.032;20.900;2024-03-22T06:55:49;11.00;82.10
50544;DHT22;41176;44.032;20.900;2024-03-22T06:58:15;11.20;82.30
50544;DHT22;41176;44.032;20.900;2024-03-22T07:00:40;11.20;82.40
50544;DHT22;41176;44.032;20.900;2024-03-22T07:03:06;11.30;82.50
50544;DHT22;41176;44.032;20.900;2024-03-22T07:05:32;11.50;81.80
50544;DHT22;41176;44.032;20.900;2024-03-22T07:07:57;11.60;80.90
50544;DHT22;41176;44.032;20.900;2024-03-22T07:10:24;11.70;81.40
50544;DHT22;41176;44.032;20.900;2024-03-22T07:12:54;11.80;81.50
50544;DHT22;41176;44.032;20.900;2024-03-22T07:15:23;11.90;80.80
50544;DHT22;41176;44.032;20.900;2024-03-22T07:17:49;12.10;78.80
50544;DHT22;41176;44.032;20.900;2024-03-22T07:20:16;12.30;79.80
50544;DHT22;41176;44.032;20.900;2024-03-22T07:22:42;12.40;77.50
50544;DHT22;41176;44.032;20.900;2024-03-22T07:25:07;12.50;77.20
50544;DHT22;41176;44.032;20.900;2024-03-22T07:27:36;12.80;78.70
50544;DHT22;41176;44.032;20.900;2024-03-22T07:30:02;13.10;79.10
50544;DHT22;41176;44.032;20.900;2024-03-22T07:32:29;13.30;78.20
50544;DHT22;41176;44.032;20.900;2024-03-22T07:34:54;13.50;76.90
50544;DHT22;41176;44.032;20.900;2024-03-22T07:37:20;13.60;74.30
50544;DHT22;41176;44.032;20.900;2024-03-22T07:39:46;13.80;75.50
50544;DHT22;41176;44.032;20.900;2024-03-22T07:42:12;14.00;75.30
50544;DHT22;41176;44.032;20.900;2024-03-22T07:44:37;14.20;72.90
50544;DHT22;41176;44.032;20.900;2024-03-22T07:47:03;14.30;72.60
50544;DHT22;41176;44.032;20.900;2024-03-22T07:49:29;14.40;70.90
50544;DHT22;41176;44.032;20.900;2024-03-22T07:51:55;14.60;69.00
50544;DHT22;41176;44.032;20.900;2024-03-22T07:54:20;14.60;71.60
50544;DHT22;41176;44.032;20.900;2024-03-22T07:56:46;14.80;70.80
50544;DHT22;41176;44.032;20.900;2024-03-22T07:59:12;14.90;67.50
50544;DHT22;41176;44.032;20.900;2024-03-22T08:01:37;15.00;70.20
50544;DHT22;41176;44.032;20.900;2024-03-22T08:04:03;15.20;71.00
50544;DHT22;41176;44.032;20.900;2024-03-22T08:06:29;15.40;69.60
50544;DHT22;41176;44.032;20.900;2024-03-22T08:08:55;15.50;69.80
50544;DHT22;41176;44.032;20.900;2024-03-22T08:11:21;15.60;65.90
50544;DHT22;41176;44.032;20.900;2024-03-22T08:13:46;15.60;66.90
50544;DHT22;41176;44.032;20.900;2024-03-22T08:16:12;15.80;67.00
50544;DHT22;41176;44.032;20.900;2024-03-22T08:18:38;16.00;67.90
50544;DHT22;41176;44.032;20.900;2024-03-22T08:21:04;16.10;61.90
50544;DHT22;41176;44.032;20.900;2024-03-22T08:23:29;16.10;63.20
50544;DHT22;41176;44.032;20.900;2024-03-22T08:25:55;16.20;64.60
50544;DHT22;41176;44.032;20.900;2024-03-22T08:28:23;16.30;63.90
50544;DHT22;41176;44.032;20.900;2024-03-22T08:30:49;16.40;64.40
50544;DHT22;41176;44.032;20.900;2024-03-22T08:33:14;16.50;64.80
50544;DHT22;41176;44.032;20.900;2024-03-22T08:35:40;16.70;64.90
50544;DHT22;41176;44.032;20.900;2024-03-22T08:38:06;16.70;62.90
50544;DHT22;41176;44.032;20.900;2024-03-22T08:40:39;16.80;64.50
50544;DHT22;41176;44.032;20.900;2024-03-22T08:43:08;16.90;64.10
50544;DHT22;41176;44.032;20.900;2024-03-22T08:45:34;17.00;63.00
50544;DHT22;41176;44.032;20.900;2024-03-22T08:47:59;17.10;62.90
50544;DHT22;41176;44.032;20.900;2024-03-22T08:50:25;17.20;61.30
50544;DHT22;41176;44.032;20.900;2024-03-22T08:52:51;17.30;61.30
50544;DHT22;41176;44.032;20.900;2024-03-22T08:55:17;17.40;60.00
50544;DHT22;41176;44.032;20.900;2024-03-22T08:57:43;17.50;60.80
50544;DHT22;41176;44.032;20.900;2024-03-22T09:00:09;17.50;59.20
50544;DHT22;41176;44.032;20.900;2024-03-22T09:02:36;17.60;60.20
50544;DHT22;41176;44.032;20.900;2024-03-22T09:05:04;17.70;57.80
50544;DHT22;41176;44.032;20.900;2024-03-22T09:07:30;17.80;58.60
50544;DHT22;41176;44.032;20.900;2024-03-22T09:09:55;17.80;56.50
50544;DHT22;41176;44.032;20.900;2024-03-22T09:12:21;17.90;59.40
50544;DHT22;41176;44.032;20.900;2024-03-22T09:14:47;18.00;58.30
50544;DHT22;41176;44.032;20.900;2024-03-22T09:17:13;18.10;57.50
50544;DHT22;41176;44.032;20.900;2024-03-22T09:19:39;18.20;56.00
50544;DHT22;41176;44.032;20.900;2024-03-22T09:22:04;18.20;57.20
50544;DHT22;41176;44.032;20.900;2024-03-22T09:24:30;18.30;57.30
50544;DHT22;41176;44.032;20.900;2024-03-22T09:26:56;18.40;55.80
50544;DHT22;41176;44.032;20.900;2024-03-22T09:29:21;18.50;55.80
50544;DHT22;41176;44.032;20.900;2024-03-22T09:31:47;18.60;54.80
50544;DHT22;41176;44.032;20.900;2024-03-22T09:34:13;18.70;55.10
50544;DHT22;41176;44.032;20.900;2024-03-22T09:36:41;18.80;54.80
50544;DHT22;41176;44.032;20.900;2024-03-22T09:39:07;18.90;54.00
50544;DHT22;41176;44.032;20.900;2024-03-22T09:41:41;18.90;54.10
50544;DHT22;41176;44.032;20.900;2024-03-22T09:44:13;19.00;56.50
50544;DHT22;41176;44.032;20.900;2024-03-22T09:46:40;19.00;54.20
50544;DHT22;41176;44.032;20.900;2024-03-22T09:49:09;19.00;52.60
50544;DHT22;41176;44.032;20.900;2024-03-22T09:51:37;19.00;54.00
50544;DHT22;41176;44.032;20.900;2024-03-22T09:54:03;19.10;54.00
50544;DHT22;41176;44.032;20.900;2024-03-22T09:56:31;19.20;54.70
50544;DHT22;41176;44.032;20.900;2024-03-22T09:58:59;19.30;52.80
50544;DHT22;41176;44.032;20.900;2024-03-22T10:01:25;19.30;51.40
50544;DHT22;41176;44.032;20.900;2024-03-22T10:03:52;19.30;50.90
50544;DHT22;41176;44.032;20.900;2024-03-22T10:06:18;19.40;51.00
50544;DHT22;41176;44.032;20.900;2024-03-22T10:08:44;19.50;52.10
50544;DHT22;41176;44.032;20.900;2024-03-22T10:11:11;19.60;51.20
50544;DHT22;41176;44.032;20.900;2024-03-22T10:13:36;19.60;51.00
50544;DHT22;41176;44.032;20.900;2024-03-22T10:16:02;19.60;52.10
50544;DHT22;41176;44.032;20.900;2024-03-22T10:18:28;19.70;51.30
50544;DHT22;41176;44.032;20.900;2024-03-22T10:21:04;19.80;51.40
50544;DHT22;41176;44.032;20.900;2024-03-22T10:23:31;19.80;51.80
50544;DHT22;41176;44.032;20.900;2024-03-22T10:26:00;19.80;48.60
50544;DHT22;41176;44.032;20.900;2024-03-22T10:28:26;19.80;48.40
50544;DHT22;41176;44.032;20.900;2024-03-22T10:30:53;19.70;50.90
50544;DHT22;41176;44.032;20.900;2024-03-22T10:33:19;19.80;48.40
50544;DHT22;41176;44.032;20.900;2024-03-22T10:35:51;19.70;50.80
50544;DHT22;41176;44.032;20.900;2024-03-22T10:38:19;19.80;49.80
50544;DHT22;41176;44.032;20.900;2024-03-22T10:40:45;20.00;51.20
50544;DHT22;41176;44.032;20.900;2024-03-22T10:43:13;20.10;48.40
50544;DHT22;41176;44.032;20.900;2024-03-22T10:45:40;20.00;47.50
50544;DHT22;41176;44.032;20.900;2024-03-22T10:48:11;20.10;48.00
50544;DHT22;41176;44.032;20.900;2024-03-22T10:50:40;20.20;50.30
50544;DHT22;41176;44.032;20.900;2024-03-22T10:53:15;20.30;48.30
50544;DHT22;41176;44.032;20.900;2024-03-22T10:55:45;20.30;46.90
50544;DHT22;41176;44.032;20.900;2024-03-22T10:58:18;20.40;47.60
50544;DHT22;41176;44.032;20.900;2024-03-22T11:00:46;20.50;49.70
50544;DHT22;41176;44.032;20.900;2024-03-22T11:03:15;20.60;48.20
50544;DHT22;41176;44.032;20.900;2024-03-22T11:05:48;20.60;47.70
50544;DHT22;41176;44.032;20.900;2024-03-22T11:08:24;20.60;45.60
50544;DHT22;41176;44.032;20.900;2024-03-22T11:10:50;20.70;46.80
50544;DHT22;41176;44.032;20.900;2024-03-22T11:13:17;20.70;44.50
50544;DHT22;41176;44.032;20.900;2024-03-22T11:15:43;20.60;44.60
50544;DHT22;41176;44.032;20.900;2024-03-22T11:18:09;20.60;44.70
50544;DHT22;41176;44.032;20.900;2024-03-22T11:20:38;20.40;47.10
50544;DHT22;41176;44.032;20.900;2024-03-22T11:23:04;20.50;44.90
50544;DHT22;41176;44.032;20.900;2024-03-22T11:25:34;20.50;44.80
50544;DHT22;41176;44.032;20.900;2024-03-22T11:28:00;20.60;44.10
50544;DHT22;41176;44.032;20.900;2024-03-22T11:30:32;20.60;44.70
50544;DHT22;41176;44.032;20.900;2024-03-22T11:33:07;20.70;45.10
50544;DHT22;41176;44.032;20.900;2024-03-22T11:35:33;20.70;44.80
50544;DHT22;41176;44.032;20.900;2024-03-22T11:37:59;20.80;44.80
50544;DHT22;41176;44.032;20.900;2024-03-22T11:40:26;20.90;47.00
50544;DHT22;41176;44.032;20.900;2024-03-22T11:42:56;21.00;45.00
50544;DHT22;41176;44.032;20.900;2024-03-22T11:45:25;21.00;44.80
50544;DHT22;41176;44.032;20.900;2024-03-22T11:47:51;21.00;45.70
50544;DHT22;41176;44.032;20.900;2024-03-22T11:50:17;20.90;44.90
50544;DHT22;41176;44.032;20.900;2024-03-22T11:52:44;21.10;46.10
50544;DHT22;41176;44.032;20.900;2024-03-22T11:55:13;21.20;44.80
50544;DHT22;41176;44.032;20.900;2024-03-22T11:57:39;21.20;42.00
50544;DHT22;41176;44.032;20.900;2024-03-22T12:00:05;21.20;42.00
50544;DHT22;41176;44.032;20.900;2024-03-22T12:02:35;21.30;44.70
50544;DHT22;41176;44.032;20.900;2024-03-22T12:05:02;21.40;44.80
50544;DHT22;41176;44.032;20.900;2024-03-22T12:07:28;21.40;45.70
50544;DHT22;41176;44.032;20.900;2024-03-22T12:09:54;21.50;44.80
50544;DHT22;41176;44.032;20.900;2024-03-22T12:12:22;21.50;44.70
50544;DHT22;41176;44.032;20.900;2024-03-22T12:14:48;21.30;44.30
50544;DHT22;41176;44.032;20.900;2024-03-22T12:17:17;20.80;42.90
50544;DHT22;41176;44.032;20.900;2024-03-22T12:19:43;20.60;44.90
50544;DHT22;41176;44.032;20.900;2024-03-22T12:22:09;20.90;45.90
50544;DHT22;41176;44.032;20.900;2024-03-22T12:24:35;21.20;46.50
50544;DHT22;41176;44.032;20.900;2024-03-22T12:27:01;21.50;45.40
50544;DHT22;41176;44.032;20.900;2024-03-22T12:29:27;21.60;43.40
50544;DHT22;41176;44.032;20.900;2024-03-22T12:31:53;21.40;42.80
50544;DHT22;41176;44.032;20.900;2024-03-22T12:34:18;21.20;43.90
50544;DHT22;41176;44.032;20.900;2024-03-22T12:36:44;21.00;43.60
50544;DHT22;41176;44.032;20.900;2024-03-22T12:39:10;20.90;44.30
50544;DHT22;41176;44.032;20.900;2024-03-22T12:41:37;20.90;44.20
50544;DHT22;41176;44.032;20.900;2024-03-22T12:44:02;20.90;43.20
50544;DHT22;41176;44.032;20.900;2024-03-22T12:46:29;20.90;44.20
50544;DHT22;41176;44.032;20.900;2024-03-22T12:48:55;20.90;44.00
50544;DHT22;41176;44.032;20.900;2024-03-22T12:51:21;20.90;43.00
50544;DHT22;41176;44.032;20.900;2024-03-22T12:53:47;21.10;44.40
50544;DHT22;41176;44.032;20.900;2024-03-22T12:56:13;21.20;43.00
50544;DHT22;41176;44.032;20.900;2024-03-22T12:58:38;21.30;43.80
50544;DHT22;41176;44.032;20.900;2024-03-22T13:01:05;21.40;44.10
50544;DHT22;41176;44.032;20.900;2024-03-22T13:03:32;21.50;43.20
50544;DHT22;41176;44.032;20.900;2024-03-22T13:05:58;21.40;43.70
50544;DHT22;41176;44.032;20.900;2024-03-22T13:08:24;21.00;44.20
50544;DHT22;41176;44.032;20.900;2024-03-22T13:10:50;20.80;44.30
50544;DHT22;41176;44.032;20.900;2024-03-22T13:13:16;20.70;44.60
50544;DHT22;41176;44.032;20.900;2024-03-22T13:15:45;20.80;44.40
50544;DHT22;41176;44.032;20.900;2024-03-22T13:18:12;21.10;45.70
50544;DHT22;41176;44.032;20.900;2024-03-22T13:20:38;21.40;45.80
50544;DHT22;41176;44.032;20.900;2024-03-22T13:23:04;21.40;45.00
50544;DHT22;41176;44.032;20.900;2024-03-22T13:25:30;21.20;44.90
50544;DHT22;41176;44.032;20.900;2024-03-22T13:27:56;20.90;45.00
50544;DHT22;41176;44.032;20.900;2024-03-22T13:30:22;20.70;45.40
50544;DHT22;41176;44.032;20.900;2024-03-22T13:32:48;20.60;45.80
50544;DHT22;41176;44.032;20.900;2024-03-22T13:35:14;20.50;45.90
50544;DHT22;41176;44.032;20.900;2024-03-22T13:37:43;20.50;46.00
50544;DHT22;41176;44.032;20.900;2024-03-22T13:40:08;20.80;46.50
50544;DHT22;41176;44.032;20.900;2024-03-22T13:42:34;21.10;46.20
50544;DHT22;41176;44.032;20.900;2024-03-22T13:45:00;21.30;46.20
50544;DHT22;41176;44.032;20.900;2024-03-22T13:47:27;21.40;46.20
50544;DHT22;41176;44.032;20.900;2024-03-22T13:49:56;21.40;46.20
50544;DHT22;41176;44.032;20.900;2024-03-22T13:52:22;21.60;47.00
50544;DHT22;41176;44.032;20.900;2024-03-22T13:54:47;22.10;45.40
50544;DHT22;41176;44.032;20.900;2024-03-22T13:57:13;22.40;44.60
50544;DHT22;41176;44.032;20.900;2024-03-22T13:59:39;22.20;45.30
50544;DHT22;41176;44.032;20.900;2024-03-22T14:02:08;21.80;45.00
50544;DHT22;41176;44.032;20.900;2024-03-22T14:04:35;21.40;45.10
50544;DHT22;41176;44.032;20.900;2024-03-22T14:07:00;21.40;44.90
50544;DHT22;41176;44.032;20.900;2024-03-22T14:09:33;21.40;45.90
50544;DHT22;41176;44.032;20.900;2024-03-22T14:11:59;21.10;45.40
50544;DHT22;41176;44.032;20.900;2024-03-22T14:14:25;20.80;45.70
50544;DHT22;41176;44.032;20.900;2024-03-22T14:16:52;20.60;45.60
50544;DHT22;41176;44.032;20.900;2024-03-22T14:19:18;20.60;46.70
50544;DHT22;41176;44.032;20.900;2024-03-22T14:21:45;20.50;47.00
50544;DHT22;41176;44.032;20.900;2024-03-22T14:24:12;20.40;46.30
50544;DHT22;41176;44.032;20.900;2024-03-22T14:26:38;20.50;46.50
50544;DHT22;41176;44.032;20.900;2024-03-22T14:29:10;21.00;46.50
50544;DHT22;41176;44.032;20.900;2024-03-22T14:31:36;21.60;46.70
50544;DHT22;41176;44.032;20.900;2024-03-22T14:34:02;21.90;45.80
50544;DHT22;41176;44.032;20.900;2024-03-22T14:36:28;21.80;46.10
50544;DHT22;41176;44.032;20.900;2024-03-22T14:38:53;21.80;46.30
50544;DHT22;41176;44.032;20.900;2024-03-22T14:41:19;21.70;45.20
50544;DHT22;41176;44.032;20.900;2024-03-22T14:43:45;21.90;45.20
50544;DHT22;41176;44.032;20.900;2024-03-22T14:46:11;22.20;44.50
50544;DHT22;41176;44.032;20.900;2024-03-22T14:48:37;22.00;44.40
50544;DHT22;41176;44.032;20.900;2024-03-22T14:51:03;21.80;43.80
50544;DHT22;41176;44.032;20.900;2024-03-22T14:53:29;21.60;43.80
50544;DHT22;41176;44.032;20.900;2024-03-22T14:56:01;21.20;44.30
50544;DHT22;41176;44.032;20.900;2024-03-22T14:58:31;21.00;44.20
50544;DHT22;41176;44.032;20.900;2024-03-22T15:00:59;20.80;44.60
50544;DHT22;41176;44.032;20.900;2024-03-22T15:03:25;20.60;45.50
50544;DHT22;41176;44.032;20.900;2024-03-22T15:05:52;20.60;45.30
50544;DHT22;41176;44.032;20.900;2024-03-22T15:08:19;20.80;45.60
50544;DHT22;41176;44.032;20.900;2024-03-22T15:10:45;21.20;45.10
50544;DHT22;41176;44.032;20.900;2024-03-22T15:13:11;21.10;45.00
50544;DHT22;41176;44.032;20.900;2024-03-22T15:15:37;20.90;45.30
50544;DHT22;41176;44.032;20.900;2024-03-22T15:18:03;20.80;45.30